Quaker Hill, Connecticut
Current Conditions -  °F | °C
As of 2:06 PM on Sunday 21 Dec 2014 (Local Time) from KGON Reporting Station
Haze Haze  
Wind Chill: 31°   Ceiling: 3400
Heat Index: 37°   Visibility: 5mi
Dew Point: 35°   Wind: 8mph
Humidity: 93%   Direction: 20°NNE
Pressure: 30.26"   Gusts: NA
Location:  41.4°N, 72.11°W
Report Text: KGON 211906Z 02007KT 5SM BR FEW015 SCT026 OVC034 03/02 A3026 RMK AO2 RAE03 P0000 T00280017
Loading
Personal Weather Stations






























Interactive Weather Map New forecast layout! Learn more

10-Day Weather Forecast

Advertisements
Track Severe Weather on mobile